Time;durP1;ratioP1;P1;durP2;ratioP2;P2;SDS_P1;SDS_P2;PMS_P1;PMS_P2;Temp;Humidity;BMP_temperature;BMP_pressure;BME280_temperature;BME280_humidity;BME280_pressure;Samples;Min_cycle;Max_cycle;Signal;HPM_P1;HPM_P2
2022/03/02 00:00:21;;;;;;;23.67;12.80;;;;;;;3.83;65.35;102569.47;4973087;28;20734;-88
2022/03/02 00:02:47;;;;;;;22.73;13.20;;;;;;;3.83;64.99;102571.16;4991015;28;20026;-88
2022/03/02 00:05:13;;;;;;;24.73;13.10;;;;;;;3.82;64.10;102572.88;4990423;28;20117;-88
2022/03/02 00:07:39;;;;;;;23.57;13.00;;;;;;;3.83;64.30;102566.00;4971341;28;20026;-88
2022/03/02 00:10:05;;;;;;;24.73;12.40;;;;;;;3.82;65.46;102566.81;4991200;28;20034;-89
2022/03/02 00:12:30;;;;;;;23.90;12.60;;;;;;;3.82;65.73;102567.72;4989831;28;20027;-88
2022/03/02 00:14:56;;;;;;;23.93;13.00;;;;;;;3.82;64.89;102574.53;4990273;28;20038;-89
2022/03/02 00:17:22;;;;;;;24.60;12.83;;;;;;;3.80;64.80;102569.38;4990670;28;20033;-89
2022/03/02 00:19:47;;;;;;;23.63;12.77;;;;;;;3.78;64.95;102569.31;4991559;28;20030;-89
2022/03/02 00:22:13;;;;;;;23.70;12.73;;;;;;;3.78;66.29;102564.16;4973032;28;20789;-89
2022/03/02 00:24:38;;;;;;;24.13;12.77;;;;;;;3.77;65.30;102570.13;4974604;28;20133;-89
2022/03/02 00:27:03;;;;;;;23.13;12.47;;;;;;;3.75;64.58;102570.91;4988944;28;20034;-89
2022/03/02 00:29:29;;;;;;;22.73;12.03;;;;;;;3.72;64.26;102563.09;4988679;28;20390;-89
2022/03/02 00:31:54;;;;;;;24.50;12.33;;;;;;;3.74;63.45;102574.31;4973083;28;20556;-89
2022/03/02 00:34:19;;;;;;;20.50;11.47;;;;;;;3.72;63.58;102555.38;4972700;28;20355;-88
2022/03/02 00:36:44;;;;;;;20.77;11.40;;;;;;;3.71;62.53;102554.50;4992628;28;20367;-89
2022/03/02 00:39:10;;;;;;;21.77;11.97;;;;;;;3.71;62.18;102559.66;4988206;28;20394;-88
2022/03/02 00:41:36;;;;;;;21.83;11.57;;;;;;;3.70;62.84;102557.91;4987278;28;20027;-88
2022/03/02 00:44:02;;;;;;;22.67;12.23;;;;;;;3.69;61.81;102555.28;4992098;28;20037;-89
2022/03/02 00:46:29;;;;;;;23.07;11.90;;;;;;;3.68;62.27;102554.41;4989723;28;20077;-88
2022/03/02 00:48:56;;;;;;;21.67;11.53;;;;;;;3.66;62.21;102550.06;4970602;28;20026;-88
2022/03/02 00:51:22;;;;;;;21.30;11.87;;;;;;;3.64;62.45;102542.28;4990899;28;20031;-89
2022/03/02 00:53:48;;;;;;;24.27;12.37;;;;;;;3.61;62.93;102545.63;4990431;28;20508;-88
2022/03/02 00:56:13;;;;;;;22.77;12.23;;;;;;;3.62;62.49;102541.34;4991289;28;20033;-88
2022/03/02 00:58:38;;;;;;;23.33;12.20;;;;;;;3.58;63.06;102548.09;4989789;28;20442;-88
2022/03/02 01:01:04;;;;;;;21.73;11.87;;;;;;;3.58;62.54;102549.81;4988935;28;20434;-89
2022/03/02 01:03:29;;;;;;;20.70;10.83;;;;;;;3.55;63.19;102542.00;4988945;28;20026;-89
2022/03/02 01:05:54;;;;;;;23.30;12.33;;;;;;;3.53;62.88;102543.66;4972995;28;20054;-89
2022/03/02 01:08:19;;;;;;;21.43;11.47;;;;;;;3.51;62.01;102546.16;4975056;28;20041;-88
2022/03/02 01:10:45;;;;;;;26.63;12.50;;;;;;;3.51;62.91;102545.31;4989754;28;20452;-89
2022/03/02 01:13:10;;;;;;;20.60;12.00;;;;;;;3.49;62.67;102547.84;4991790;28;20026;-88
2022/03/02 01:15:35;;;;;;;25.53;12.43;;;;;;;3.47;63.00;102545.19;4987186;28;20076;-88
2022/03/02 01:18:01;;;;;;;23.17;11.80;;;;;;;3.44;62.88;102539.94;4988660;28;20026;-88
2022/03/02 01:20:26;;;;;;;26.07;12.30;;;;;;;3.43;63.97;102547.63;4971486;28;20046;-89
2022/03/02 01:22:52;;;;;;;24.17;11.70;;;;;;;3.38;63.99;102524.34;4990289;28;20023;-89
2022/03/02 01:25:17;;;;;;;24.60;12.13;;;;;;;3.36;63.74;102531.13;4972589;28;20113;-88
2022/03/02 01:27:42;;;;;;;22.57;12.07;;;;;;;3.34;63.54;102520.78;4971845;28;20390;-88
2022/03/02 01:30:08;;;;;;;23.13;11.83;;;;;;;3.33;63.35;102525.88;4971790;28;20068;-89
2022/03/02 01:32:34;;;;;;;23.20;11.50;;;;;;;3.34;62.61;102519.91;4987978;28;20505;-88
2022/03/02 01:34:59;;;;;;;21.97;11.53;;;;;;;3.32;63.45;102513.84;4991796;28;20113;-89
2022/03/02 01:37:25;;;;;;;25.13;12.53;;;;;;;3.32;63.17;102519.88;4986138;28;20170;-88
2022/03/02 01:39:50;;;;;;;22.37;11.23;;;;;;;3.33;62.66;102520.75;4988588;28;20022;-88
2022/03/02 01:42:15;;;;;;;22.93;10.90;;;;;;;3.32;62.77;102516.41;4990178;28;20482;-88
2022/03/02 01:44:40;;;;;;;23.13;11.77;;;;;;;3.33;63.54;102515.59;4986928;28;20026;-89
2022/03/02 01:47:06;;;;;;;20.77;11.70;;;;;;;3.32;63.88;102517.31;4968995;28;20114;-88
2022/03/02 01:49:33;;;;;;;21.57;11.37;;;;;;;3.32;62.87;102511.28;4988624;28;20026;-88
2022/03/02 01:51:59;;;;;;;21.63;11.37;;;;;;;3.32;62.20;102513.84;4988901;28;20049;-89
2022/03/02 01:54:24;;;;;;;21.27;11.73;;;;;;;3.31;63.24;102515.56;4988546;28;20516;-88
2022/03/02 01:56:51;;;;;;;21.30;11.40;;;;;;;3.31;63.87;102514.66;4969846;28;20076;-88
2022/03/02 01:59:16;;;;;;;20.17;10.97;;;;;;;3.30;63.63;102512.91;4987688;28;20049;-88
2022/03/02 02:01:42;;;;;;;19.87;11.47;;;;;;;3.28;63.60;102514.56;4989124;28;20026;-88
2022/03/02 02:04:09;;;;;;;24.43;11.37;;;;;;;3.24;64.59;102505.03;4969936;28;20448;-88
2022/03/02 02:06:34;;;;;;;19.87;10.90;;;;;;;3.23;64.32;102504.13;4971007;28;20091;-89
2022/03/02 02:09:00;;;;;;;21.10;11.70;;;;;;;3.21;65.02;102504.94;4988691;28;20061;-89
2022/03/02 02:11:26;;;;;;;20.30;10.83;;;;;;;3.22;65.42;102501.53;4970648;28;20026;-88
2022/03/02 02:13:52;;;;;;;23.37;12.10;;;;;;;3.19;64.60;102494.56;4971005;28;20030;-88
2022/03/02 02:16:20;;;;;;;20.17;11.27;;;;;;;3.17;64.40;102497.09;4986839;28;20438;-89
2022/03/02 02:18:46;;;;;;;20.33;11.03;;;;;;;3.16;64.98;102499.66;4987812;28;20037;-88
2022/03/02 02:21:11;;;;;;;22.50;11.50;;;;;;;3.15;63.93;102496.19;4986593;28;20038;-89
2022/03/02 02:23:38;;;;;;;23.20;11.00;;;;;;;3.14;63.79;102491.88;4969735;28;20031;-88
2022/03/02 02:26:04;;;;;;;21.77;11.47;;;;;;;3.13;64.19;102496.97;4971070;28;20037;-88
2022/03/02 02:28:31;;;;;;;21.00;11.43;;;;;;;3.11;63.73;102486.63;4988613;28;20390;-89
2022/03/02 02:30:58;;;;;;;20.73;11.83;;;;;;;3.10;64.52;102481.44;4985710;28;20023;-88
2022/03/02 02:33:24;;;;;;;19.27;11.07;;;;;;;3.07;64.64;102487.38;4988025;28;20022;-88
2022/03/02 02:35:50;;;;;;;22.73;11.53;;;;;;;3.03;64.68;102481.22;4973308;28;20030;-88
2022/03/02 02:38:17;;;;;;;19.13;11.00;;;;;;;2.99;65.25;102479.38;4970649;28;20022;-88
2022/03/02 02:40:42;;;;;;;23.73;11.43;;;;;;;2.95;65.89;102477.56;4989016;28;20033;-88
2022/03/02 02:43:08;;;;;;;21.67;10.60;;;;;;;2.94;65.34;102475.81;4985289;28;20442;-89
2022/03/02 02:45:34;;;;;;;20.63;10.73;;;;;;;2.94;65.25;102470.66;4988839;28;20029;-88
2022/03/02 02:47:59;;;;;;;21.33;11.37;;;;;;;2.94;64.81;102468.09;4968734;28;20037;-89
2022/03/02 02:50:27;;;;;;;20.63;10.83;;;;;;;2.96;64.53;102474.16;4970091;28;20029;-89
2022/03/02 02:52:54;;;;;;;21.50;11.07;;;;;;;2.96;64.52;102470.69;4987718;28;20469;-88
2022/03/02 02:55:21;;;;;;;20.73;10.93;;;;;;;2.96;65.87;102463.88;4987591;28;20033;-89
2022/03/02 02:57:47;;;;;;;21.07;11.50;;;;;;;2.96;64.87;102468.13;4987993;28;20018;-89
2022/03/02 03:00:15;;;;;;;20.77;11.43;;;;;;;2.95;66.50;102466.38;4986995;28;20036;-88
2022/03/02 03:02:41;;;;;;;22.93;11.37;;;;;;;2.92;65.01;102456.00;4986419;28;20099;-88
2022/03/02 03:05:16;;;;;;;21.37;11.33;;;;;;;2.92;64.99;102466.28;4983906;28;20049;-89
2022/03/02 03:07:42;;;;;;;20.10;11.17;;;;;;;2.91;64.29;102459.38;4985046;28;20023;-89
2022/03/02 03:10:10;;;;;;;19.70;11.00;;;;;;;2.90;64.54;102460.25;4987571;28;20026;-89
2022/03/02 03:12:36;;;;;;;20.03;11.43;;;;;;;2.86;65.15;102459.25;4968951;28;20082;-89
2022/03/02 03:15:04;;;;;;;20.30;11.07;;;;;;;2.85;65.35;102458.38;4984723;28;20030;-89
2022/03/02 03:17:29;;;;;;;21.67;10.50;;;;;;;2.84;65.31;102454.06;4986537;28;20109;-88
2022/03/02 03:19:54;;;;;;;22.37;11.50;;;;;;;2.82;65.44;102448.00;4985238;28;20109;-89
2022/03/02 03:22:20;;;;;;;18.63;10.93;;;;;;;2.82;65.07;102457.44;4986287;28;20037;-89
2022/03/02 03:24:45;;;;;;;19.63;10.97;;;;;;;2.81;64.46;102464.25;4987746;28;20033;-89
2022/03/02 03:27:11;;;;;;;20.00;10.87;;;;;;;2.81;66.16;102463.38;4987227;28;20034;-90
2022/03/02 03:29:36;;;;;;;21.30;11.13;;;;;;;2.78;65.19;102456.44;4986673;28;20026;-88
2022/03/02 03:32:01;;;;;;;19.40;10.43;;;;;;;2.79;64.04;102465.03;4971271;28;20382;-89
2022/03/02 03:34:26;;;;;;;19.47;11.07;;;;;;;2.76;65.37;102458.06;4984330;28;20029;-88
2022/03/02 03:36:52;;;;;;;21.33;10.87;;;;;;;2.75;65.80;102458.88;4988182;28;20492;-89
2022/03/02 03:39:18;;;;;;;20.73;10.43;;;;;;;2.76;67.38;102454.66;4988870;28;20030;-89
2022/03/02 03:41:43;;;;;;;19.47;10.53;;;;;;;2.74;67.12;102452.00;4989010;28;20029;-88
2022/03/02 03:44:08;;;;;;;18.47;10.90;;;;;;;2.72;66.66;102458.81;4986752;28;20097;-88
2022/03/02 03:46:33;;;;;;;20.67;10.90;;;;;;;2.71;65.72;102457.94;4986596;28;20038;-88
2022/03/02 03:48:59;;;;;;;20.07;10.17;;;;;;;2.70;65.32;102452.75;4985808;28;20042;-88
2022/03/02 03:51:25;;;;;;;21.40;10.97;;;;;;;2.67;65.32;102452.66;4987040;28;20502;-88
2022/03/02 03:53:50;;;;;;;23.13;11.57;;;;;;;2.64;65.06;102447.41;4970975;28;20037;-88
2022/03/02 03:56:16;;;;;;;20.33;10.90;;;;;;;2.63;65.08;102461.97;4986932;28;20026;-89
2022/03/02 03:58:41;;;;;;;24.13;11.80;;;;;;;2.57;64.80;102447.19;4985603;28;20030;-89
2022/03/02 04:01:06;;;;;;;21.33;11.20;;;;;;;2.58;64.66;102451.50;4967324;28;20026;-89
2022/03/02 04:03:34;;;;;;;22.30;12.23;;;;;;;2.54;64.86;102453.91;4968584;28;20448;-89
2022/03/02 04:06:00;;;;;;;21.43;11.50;;;;;;;2.50;66.02;102458.09;4986763;28;20073;-88
2022/03/02 04:08:25;;;;;;;21.53;11.03;;;;;;;2.49;65.90;102452.88;4987202;28;20387;-88
2022/03/02 04:10:50;;;;;;;21.03;11.23;;;;;;;2.46;64.94;102452.81;4967957;28;20030;-88
2022/03/02 04:13:16;;;;;;;22.70;11.03;;;;;;;2.42;65.63;102434.72;4970689;28;20359;-89
2022/03/02 04:15:41;;;;;;;20.27;11.10;;;;;;;2.38;66.58;102443.13;4987449;28;20093;-88
2022/03/02 04:18:07;;;;;;;20.30;10.50;;;;;;;2.35;66.52;102432.75;4986645;28;20466;-88
2022/03/02 04:20:34;;;;;;;20.63;10.37;;;;;;;2.34;66.52;102432.72;4986418;28;20025;-88
2022/03/02 04:22:59;;;;;;;18.73;10.10;;;;;;;2.33;66.83;102420.69;4986342;28;20064;-89
2022/03/02 04:25:25;;;;;;;19.37;10.23;;;;;;;2.32;67.68;102424.94;4985615;28;20022;-89
2022/03/02 04:27:50;;;;;;;24.60;11.07;;;;;;;2.30;67.48;102425.72;4986415;28;20088;-88
2022/03/02 04:30:15;;;;;;;18.97;9.57;;;;;;;2.26;68.02;102428.16;4984592;28;20077;-88
2022/03/02 04:32:41;;;;;;;19.47;10.17;;;;;;;2.22;66.75;102420.31;4987861;28;20492;-88
2022/03/02 04:35:09;;;;;;;18.67;10.57;;;;;;;2.22;66.14;102420.31;4969417;28;20019;-88
2022/03/02 04:37:35;;;;;;;19.27;10.50;;;;;;;2.20;66.20;102410.00;4969661;28;20031;-89
2022/03/02 04:40:00;;;;;;;20.70;10.67;;;;;;;2.21;65.81;102409.19;4973387;28;21851;-89
2022/03/02 04:42:25;;;;;;;21.27;10.33;;;;;;;2.21;66.03;102409.19;4988053;28;20037;-88
2022/03/02 04:44:51;;;;;;;20.93;10.77;;;;;;;2.22;65.61;102408.34;4974061;28;20034;-87
2022/03/02 04:47:16;;;;;;;20.90;10.20;;;;;;;2.22;66.49;102400.63;4988146;28;20072;-89
2022/03/02 04:49:41;;;;;;;20.40;10.27;;;;;;;2.22;65.93;102408.34;4975170;28;20038;-88
2022/03/02 04:52:07;;;;;;;21.43;10.50;;;;;;;2.20;65.93;102412.56;4990573;28;20027;-88
2022/03/02 04:57:16;;;;;;;18.77;9.87;;;;;;;2.20;65.91;102416.81;4986319;28;20130;-88
2022/03/02 04:59:41;;;;;;;20.53;10.17;;;;;;;2.18;65.99;102416.78;4988851;28;20067;-89
2022/03/02 05:02:07;;;;;;;18.23;10.23;;;;;;;2.19;65.12;102407.38;4991190;28;20034;-87
2022/03/02 05:04:32;;;;;;;18.30;9.53;;;;;;;2.18;64.15;102409.06;4990038;28;20112;-88
2022/03/02 05:06:57;;;;;;;19.50;10.00;;;;;;;2.18;64.33;102411.63;4989958;28;20418;-88
2022/03/02 05:09:23;;;;;;;20.43;10.40;;;;;;;2.20;64.60;102406.53;4970323;28;20034;-88
2022/03/02 05:11:48;;;;;;;18.30;10.03;;;;;;;2.19;64.96;102395.41;4971461;28;20022;-88
2022/03/02 05:14:13;;;;;;;18.63;9.77;;;;;;;2.19;64.63;102399.66;4973349;28;20110;-88
2022/03/02 05:16:38;;;;;;;17.93;9.83;;;;;;;2.17;65.29;102402.19;4988362;28;20027;-88
2022/03/02 05:19:04;;;;;;;18.37;9.87;;;;;;;2.14;65.21;102399.50;4989682;28;20058;-89
2022/03/02 05:21:29;;;;;;;18.70;9.60;;;;;;;2.11;66.82;102394.25;4989298;28;20615;-88
2022/03/02 05:23:54;;;;;;;17.63;9.73;;;;;;;2.07;66.50;102389.84;4992540;28;20038;-89
2022/03/02 05:26:20;;;;;;;19.10;10.13;;;;;;;2.05;65.86;102396.63;4989966;28;20065;-88
2022/03/02 05:28:45;;;;;;;18.87;9.50;;;;;;;2.02;65.80;102391.41;4972501;28;20133;-88
2022/03/02 05:31:10;;;;;;;17.90;9.77;;;;;;;1.99;65.35;102391.28;4990008;28;20392;-88
2022/03/02 05:33:35;;;;;;;18.43;9.60;;;;;;;1.96;66.25;102390.34;4990140;28;20386;-89
2022/03/02 05:36:01;;;;;;;18.03;9.80;;;;;;;1.95;65.67;102390.31;4971992;28;20039;-89
2022/03/02 05:38:27;;;;;;;19.00;9.50;;;;;;;1.93;65.93;102390.22;4988615;28;20457;-88
2022/03/02 05:40:52;;;;;;;18.03;10.00;;;;;;;1.92;67.19;102391.06;4990010;28;20034;-88
2022/03/02 05:43:17;;;;;;;20.90;9.43;;;;;;;1.92;66.33;102395.31;4990571;28;20113;-88
2022/03/02 05:45:43;;;;;;;16.87;9.10;;;;;;;1.90;66.47;102390.13;4988557;28;20041;-88
2022/03/02 05:48:09;;;;;;;18.23;9.23;;;;;;;1.90;65.36;102392.69;4989034;28;20462;-88
2022/03/02 05:50:34;;;;;;;22.37;10.07;;;;;;;1.87;65.33;102389.16;4988765;28;20026;-88
2022/03/02 05:52:59;;;;;;;18.37;9.73;;;;;;;1.87;65.58;102384.91;4985875;28;20060;-89
2022/03/02 05:55:25;;;;;;;16.70;9.17;;;;;;;1.87;66.46;102389.16;4987660;28;20129;-88
2022/03/02 05:57:50;;;;;;;16.40;9.60;;;;;;;1.86;66.02;102389.97;4987283;28;20579;-89
2022/03/02 06:00:16;;;;;;;17.97;9.57;;;;;;;1.84;65.43;102387.38;4985940;28;20038;-89
2022/03/02 06:02:41;;;;;;;17.23;9.03;;;;;;;1.86;65.70;102395.09;4969503;28;20058;-88
2022/03/02 06:05:09;;;;;;;19.20;9.60;;;;;;;1.84;65.37;102392.50;4969747;28;20565;-88
2022/03/02 06:07:34;;;;;;;16.70;9.07;;;;;;;1.85;65.49;102394.25;4968965;28;20109;-88
2022/03/02 06:10:00;;;;;;;19.10;10.13;;;;;;;1.85;66.31;102399.38;4984488;28;20113;-89
2022/03/02 06:12:25;;;;;;;16.40;8.97;;;;;;;1.86;67.00;102401.13;4988481;28;20113;-89
2022/03/02 06:14:51;;;;;;;19.00;9.30;;;;;;;1.86;66.57;102398.56;4987123;28;20407;-90
2022/03/02 06:17:17;;;;;;;16.60;9.30;;;;;;;1.86;66.77;102400.22;4988598;28;20026;-89
2022/03/02 06:19:42;;;;;;;22.33;10.50;;;;;;;1.86;65.08;102401.13;4995268;28;20045;-89
2022/03/02 06:22:09;;;;;;;19.20;9.73;;;;;;;1.85;65.98;102398.47;4974038;28;20036;-90
2022/03/02 06:24:35;;;;;;;17.63;10.23;;;;;;;1.85;66.07;102401.06;4990314;28;20388;-89
2022/03/02 06:27:01;;;;;;;18.03;9.40;;;;;;;1.85;65.51;102399.38;4995395;28;20057;-90
2022/03/02 06:29:26;;;;;;;18.00;9.30;;;;;;;1.84;65.86;102401.88;4989117;28;20057;-89
2022/03/02 06:31:52;;;;;;;17.17;9.47;;;;;;;1.83;65.39;102398.44;4994460;28;20101;-89
2022/03/02 06:34:17;;;;;;;16.87;8.90;;;;;;;1.82;65.06;102404.38;4995451;28;20060;-88
2022/03/02 06:36:42;;;;;;;21.30;10.63;;;;;;;1.82;64.94;102399.25;4995596;28;20155;-89
2022/03/02 06:39:08;;;;;;;18.47;9.53;;;;;;;1.80;65.21;102406.03;4991955;28;20034;-89
2022/03/02 06:41:53;;;;;;;19.10;9.40;;;;;;;1.79;65.46;102401.72;4992330;28;20034;-89
2022/03/02 06:44:53;;;;;;;16.43;8.87;;;;;;;1.78;64.94;102407.66;4988374;28;20033;-89
2022/03/02 06:47:27;;;;;;;18.77;10.00;;;;;;;1.76;64.91;102399.91;4990129;28;20030;-89
2022/03/02 06:49:58;;;;;;;18.90;9.17;;;;;;;1.79;64.62;102409.41;4991571;28;20054;-90
2022/03/02 06:52:31;;;;;;;17.35;9.00;;;;;;;1.78;65.37;102412.78;4991391;28;20034;-88
2022/03/02 06:55:00;;;;;;;18.67;9.50;;;;;;;1.79;66.39;102414.53;4991982;28;20113;-89
2022/03/02 06:57:28;;;;;;;16.70;10.00;;;;;;;1.82;65.95;102422.34;4972685;28;20477;-89
2022/03/02 07:00:04;;;;;;;20.00;9.53;;;;;;;1.82;65.18;102410.38;4974395;28;20041;-89
2022/03/02 07:02:39;;;;;;;18.93;10.10;;;;;;;1.86;64.41;102415.63;4973487;28;20113;-89
2022/03/02 07:05:07;;;;;;;17.60;9.07;;;;;;;1.87;64.11;102423.41;4992157;28;20050;-89
2022/03/02 07:07:34;;;;;;;16.87;9.20;;;;;;;1.91;64.74;102425.25;4974565;28;20030;-89
2022/03/02 07:10:00;;;;;;;19.10;9.67;;;;;;;1.93;64.07;102423.59;4992086;28;20038;-89
2022/03/02 07:12:27;;;;;;;18.27;9.80;;;;;;;1.97;63.68;102424.56;4990717;28;20050;-88
2022/03/02 07:14:54;;;;;;;18.67;9.37;;;;;;;2.00;62.92;102421.25;4992827;28;20105;-89
2022/03/02 07:17:21;;;;;;;17.07;9.47;;;;;;;2.03;63.26;102423.94;4990360;28;20036;-89
2022/03/02 07:19:46;;;;;;;16.90;9.30;;;;;;;2.06;63.22;102424.03;4988111;28;20446;-89
2022/03/02 07:22:16;;;;;;;17.90;9.87;;;;;;;2.09;63.49;102417.34;4970675;28;20125;-89
2022/03/02 07:24:54;;;;;;;18.73;9.30;;;;;;;2.15;63.34;102424.38;4991467;28;20069;-88
2022/03/02 07:27:20;;;;;;;19.73;9.60;;;;;;;2.18;63.01;102421.91;4968529;28;20034;-89
2022/03/02 07:29:49;;;;;;;17.47;9.50;;;;;;;2.22;63.53;102416.03;4970575;28;20026;-89
2022/03/02 07:32:29;;;;;;;18.57;9.53;;;;;;;2.25;63.26;102405.03;4968952;28;20153;-89
2022/03/02 07:34:58;;;;;;;17.00;9.83;;;;;;;2.31;63.83;102412.06;4967783;28;20143;-88
2022/03/02 07:37:24;;;;;;;23.90;11.40;;;;;;;2.37;63.86;102419.97;4969569;28;20477;-88
2022/03/02 07:39:50;;;;;;;24.43;11.73;;;;;;;2.41;63.81;102416.66;4967909;28;20146;-89
2022/03/02 07:42:15;;;;;;;21.87;11.30;;;;;;;2.44;63.00;102411.63;4988776;28;20022;-89
2022/03/02 07:44:44;;;;;;;21.67;11.57;;;;;;;2.47;62.83;102409.16;4984573;28;20078;-89
2022/03/02 07:47:09;;;;;;;23.27;12.40;;;;;;;2.52;62.62;102414.47;4989213;28;20057;-89
2022/03/02 07:49:35;;;;;;;19.87;10.77;;;;;;;2.57;62.52;102418.06;4990863;28;20061;-89
2022/03/02 07:52:03;;;;;;;18.90;9.60;;;;;;;2.63;62.76;102412.25;4987816;28;20161;-89
2022/03/02 07:54:30;;;;;;;22.27;10.67;;;;;;;2.67;61.69;102408.97;4988979;28;20030;-88
2022/03/02 07:56:57;;;;;;;19.57;10.67;;;;;;;2.72;62.35;102404.84;4970976;28;20425;-89
2022/03/02 07:59:22;;;;;;;17.27;9.50;;;;;;;2.78;62.51;102414.44;4985859;28;20038;-89
2022/03/02 08:01:48;;;;;;;17.97;10.10;;;;;;;2.82;61.51;102414.59;4987869;28;20033;-88
2022/03/02 08:04:14;;;;;;;22.23;10.33;;;;;;;2.87;61.01;102410.47;4988351;28;20035;-88
2022/03/02 08:06:40;;;;;;;20.47;10.07;;;;;;;2.94;61.04;102415.78;4971793;28;20043;-88
2022/03/02 08:09:08;;;;;;;18.37;9.93;;;;;;;2.99;60.71;102412.53;4990320;28;20389;-88
2022/03/02 08:11:37;;;;;;;18.37;9.23;;;;;;;3.04;59.85;102410.97;4990718;28;20031;-89
2022/03/02 08:14:03;;;;;;;19.10;10.20;;;;;;;3.09;60.18;102405.13;4991113;28;20100;-88
2022/03/02 08:16:30;;;;;;;19.03;9.83;;;;;;;3.15;59.94;102406.19;4988465;28;20027;-89
2022/03/02 08:18:57;;;;;;;18.40;10.00;;;;;;;3.21;59.55;102399.47;4989202;28;20034;-92
2022/03/02 08:21:26;;;;;;;18.27;10.10;;;;;;;3.27;59.50;102403.09;4992886;28;20030;-92
2022/03/02 08:23:55;;;;;;;16.87;9.63;;;;;;;3.33;59.08;102398.13;4973639;28;20041;-93
2022/03/02 08:26:22;;;;;;;18.77;10.00;;;;;;;3.37;58.71;102391.38;4992243;28;20045;-92
2022/03/02 08:28:53;;;;;;;17.70;10.03;;;;;;;3.43;59.23;102398.41;4976340;28;20026;-93
2022/03/02 08:31:19;;;;;;;16.83;9.77;;;;;;;3.46;59.55;102391.66;4973889;28;20065;-93
2022/03/02 08:33:45;;;;;;;17.17;9.20;;;;;;;3.51;58.48;102390.91;4972783;28;20101;-91
2022/03/02 08:36:12;;;;;;;16.70;9.50;;;;;;;3.56;58.60;102389.34;4973427;28;20045;-92
2022/03/02 08:38:42;;;;;;;15.93;9.10;;;;;;;3.61;59.84;102382.59;4973825;28;20045;-92
2022/03/02 08:41:10;;;;;;;16.60;9.63;;;;;;;3.67;59.99;102382.78;4989956;28;20458;-94
2022/03/02 08:43:35;;;;;;;17.10;9.43;;;;;;;3.71;58.52;102384.63;4971424;28;20053;-93
2022/03/02 08:46:02;;;;;;;14.30;8.30;;;;;;;3.73;57.70;102385.53;4969962;28;21338;-91
2022/03/02 08:48:27;;;;;;;18.10;9.60;;;;;;;3.78;59.32;102388.25;4972458;28;20113;-91
2022/03/02 08:50:56;;;;;;;15.77;8.77;;;;;;;3.80;58.21;102384.88;4970905;28;20108;-90
2022/03/02 08:53:24;;;;;;;17.47;8.47;;;;;;;3.85;57.57;102381.56;4971736;28;20120;-93
2022/03/02 08:55:51;;;;;;;16.57;8.73;;;;;;;3.90;56.28;102386.00;4972415;28;20027;-92
2022/03/02 08:58:17;;;;;;;16.60;9.33;;;;;;;3.96;56.32;102385.28;4970624;28;20113;-92
2022/03/02 09:00:42;;;;;;;15.40;8.67;;;;;;;4.01;56.25;102388.00;4970966;28;20161;-91
2022/03/02 09:03:13;;;;;;;14.77;8.43;;;;;;;4.05;56.81;102385.53;4969319;28;20038;-91
2022/03/02 09:05:39;;;;;;;15.73;8.53;;;;;;;4.09;57.56;102386.47;4987775;28;20047;-92
2022/03/02 09:08:06;;;;;;;15.70;8.23;;;;;;;4.14;56.05;102387.50;4991753;28;20101;-93
2022/03/02 09:10:32;;;;;;;15.40;8.53;;;;;;;4.19;55.72;102378.16;4972323;28;20442;-92
2022/03/02 09:12:59;;;;;;;18.90;9.70;;;;;;;4.25;55.76;102377.47;4969943;28;20026;-93
2022/03/02 09:15:25;;;;;;;15.93;9.00;;;;;;;4.31;54.25;102382.75;4970197;28;20109;-92
2022/03/02 09:17:51;;;;;;;15.37;8.47;;;;;;;4.35;54.05;102382.00;4988476;28;20110;-93
2022/03/02 09:20:16;;;;;;;15.57;9.07;;;;;;;4.44;54.23;102378.78;4991335;28;20049;-94
2022/03/02 09:22:43;;;;;;;16.03;8.37;;;;;;;4.49;53.16;102372.03;4973573;28;20034;-92
2022/03/02 09:25:09;;;;;;;14.50;8.10;;;;;;;4.56;55.28;102365.31;4987817;28;20030;-92
2022/03/02 09:27:35;;;;;;;15.40;8.67;;;;;;;4.64;55.32;102361.22;4971178;28;20034;-93
2022/03/02 09:30:06;;;;;;;15.37;8.53;;;;;;;4.73;55.00;102363.13;4971995;28;20497;-93
2022/03/02 09:32:32;;;;;;;18.25;9.02;;;;;;;4.83;56.07;102362.53;4987114;28;20191;-93
2022/03/02 09:34:59;;;;;;;16.87;8.70;;;;;;;4.93;54.68;102360.13;4986385;28;20453;-92
2022/03/02 09:37:27;;;;;;;15.55;9.10;;;;;;;5.00;52.56;102352.56;4985015;28;20572;-90
2022/03/02 09:39:52;;;;;;;16.13;8.37;;;;;;;5.08;52.79;102352.72;4986401;28;20121;-91
2022/03/02 09:42:26;;;;;;;15.37;8.97;;;;;;;5.16;52.67;102346.03;4985152;28;20117;-93
2022/03/02 09:45:20;;;;;;;17.30;9.18;;;;;;;5.27;54.76;102347.97;4986532;28;20038;-92
2022/03/02 09:47:52;;;;;;;15.20;9.05;;;;;;;5.35;50.68;102345.53;4983380;28;20046;-91
2022/03/02 09:50:18;;;;;;;18.70;9.77;;;;;;;5.43;51.05;102341.41;4968853;28;20058;-92
2022/03/02 09:52:48;;;;;;;17.50;8.97;;;;;;;5.51;51.26;102345.00;4969278;28;20537;-92
2022/03/02 09:55:21;;;;;;;15.85;8.52;;;;;;;5.58;50.43;102344.28;4971802;28;20791;-93
2022/03/02 09:57:49;;;;;;;15.98;8.52;;;;;;;5.62;50.08;102346.09;4971203;28;20034;-94
2022/03/02 10:00:18;;;;;;;16.95;9.25;;;;;;;5.69;50.25;102348.78;4969352;28;20045;-92
2022/03/02 10:02:46;;;;;;;16.63;8.73;;;;;;;5.71;50.56;102350.56;4985479;28;20021;-91
2022/03/02 10:05:16;;;;;;;15.73;9.15;;;;;;;5.73;52.00;102353.16;4986324;28;20591;-91
2022/03/02 10:07:51;;;;;;;15.82;9.27;;;;;;;5.74;52.40;102354.91;4966739;28;20037;-92
2022/03/02 10:10:22;;;;;;;16.20;8.55;;;;;;;5.75;51.76;102346.31;4967979;28;20030;-91
2022/03/02 10:12:47;;;;;;;14.43;8.88;;;;;;;5.75;49.14;102347.19;4988044;28;20101;-92
2022/03/02 10:15:14;;;;;;;16.55;9.00;;;;;;;5.73;48.96;102342.84;4967827;28;20030;-91
2022/03/02 10:17:42;;;;;;;14.88;8.40;;;;;;;5.73;48.85;102343.69;4986688;28;20555;-93
2022/03/02 10:20:14;;;;;;;14.77;8.38;;;;;;;5.76;50.23;102338.59;4986562;28;20049;-91
2022/03/02 10:22:47;;;;;;;17.10;9.00;;;;;;;5.80;47.91;102339.53;4987131;28;20081;-92
2022/03/02 10:25:16;;;;;;;15.38;8.88;;;;;;;5.84;48.72;102346.47;4985262;28;20038;-91
2022/03/02 10:28:02;;;;;;;15.82;8.27;;;;;;;5.90;49.87;102346.59;4982894;28;20034;-89
2022/03/02 10:30:36;;;;;;;15.45;8.23;;;;;;;5.92;47.47;102339.75;4985940;28;20026;-96
2022/03/02 10:33:24;;;;;;;14.35;8.73;;;;;;;5.97;49.82;102337.25;4984754;28;20565;-91
2022/03/02 10:36:08;;;;;;;19.05;8.77;;;;;;;6.03;49.29;102333.94;4971042;28;20136;-93
2022/03/02 10:38:39;;;;;;;16.02;9.27;;;;;;;6.06;48.58;102332.25;4985461;28;20065;-92
2022/03/02 10:41:07;;;;;;;16.73;8.98;;;;;;;6.09;47.32;102336.63;4986439;28;20034;-92
2022/03/02 10:43:57;;;;;;;17.90;8.38;;;;;;;6.12;48.65;102339.28;4967357;28;20041;-92
2022/03/02 10:46:24;;;;;;;14.38;8.40;;;;;;;6.15;46.81;102331.53;4968176;28;20022;-91
2022/03/02 10:49:02;;;;;;;15.77;8.63;;;;;;;6.20;47.14;102335.09;4967361;28;20034;-91
2022/03/02 10:51:29;;;;;;;15.20;8.45;;;;;;;6.26;46.22;102329.13;4968675;28;20061;-90
2022/03/02 10:53:56;;;;;;;15.60;8.63;;;;;;;6.34;46.93;102321.50;4985025;28;20029;-93
2022/03/02 10:56:26;;;;;;;15.73;8.25;;;;;;;6.41;46.48;102320.78;4968885;28;20050;-92
2022/03/02 10:58:52;;;;;;;17.02;9.40;;;;;;;6.45;46.16;102324.25;4985621;28;20104;-92
2022/03/02 11:01:18;;;;;;;15.55;8.13;;;;;;;6.51;46.88;102320.06;4967450;28;20031;-93
2022/03/02 11:03:44;;;;;;;14.77;8.50;;;;;;;6.57;46.45;102318.41;4968745;28;20026;-94
2022/03/02 11:06:11;;;;;;;14.35;8.43;;;;;;;6.64;45.33;102322.84;4995999;28;20050;-94
2022/03/02 11:08:38;;;;;;;13.60;8.23;;;;;;;6.68;46.76;102319.44;4974062;28;20030;-93
2022/03/02 11:11:06;;;;;;;16.40;8.45;;;;;;;6.73;45.31;102316.94;4988963;28;20121;-93
2022/03/02 11:13:31;;;;;;;16.05;8.30;;;;;;;6.78;46.30;102318.72;4982837;28;20030;-92
2022/03/02 11:16:00;;;;;;;13.70;8.18;;;;;;;6.82;45.75;102312.75;4982854;28;20041;-93
2022/03/02 11:18:52;;;;;;;14.57;8.07;;;;;;;6.85;46.47;102314.50;4983596;28;20407;-95
2022/03/02 11:21:22;;;;;;;13.02;8.23;;;;;;;6.89;46.08;102311.13;4985705;28;20528;-95
2022/03/02 11:23:52;;;;;;;15.57;8.55;;;;;;;6.97;44.74;102303.47;4967597;28;20052;-94